sensor_id;sensor_type;location;lat;lon;timestamp;P1;durP1;ratioP1;P2;durP2;ratioP2
62523;SDS011;53689;56.878;60.672;2023-01-15T00:02:09;13.13;;;7.35;;
62523;SDS011;53689;56.878;60.672;2023-01-15T00:04:36;12.57;;;7.38;;
62523;SDS011;53689;56.878;60.672;2023-01-15T00:07:04;12.90;;;7.13;;
62523;SDS011;53689;56.878;60.672;2023-01-15T00:09:31;12.05;;;6.82;;
62523;SDS011;53689;56.878;60.672;2023-01-15T00:11:59;14.52;;;7.18;;
62523;SDS011;53689;56.878;60.672;2023-01-15T00:14:28;15.68;;;8.40;;
62523;SDS011;53689;56.878;60.672;2023-01-15T00:16:56;11.82;;;7.13;;
62523;SDS011;53689;56.878;60.672;2023-01-15T00:19:23;12.20;;;7.60;;
62523;SDS011;53689;56.878;60.672;2023-01-15T00:21:51;12.27;;;7.38;;
62523;SDS011;53689;56.878;60.672;2023-01-15T00:24:18;14.73;;;8.32;;
62523;SDS011;53689;56.878;60.672;2023-01-15T00:26:46;12.00;;;6.93;;
62523;SDS011;53689;56.878;60.672;2023-01-15T00:29:14;15.80;;;8.75;;
62523;SDS011;53689;56.878;60.672;2023-01-15T00:31:44;15.40;;;9.60;;
62523;SDS011;53689;56.878;60.672;2023-01-15T00:34:19;14.27;;;8.20;;
62523;SDS011;53689;56.878;60.672;2023-01-15T00:36:47;13.73;;;7.90;;
62523;SDS011;53689;56.878;60.672;2023-01-15T00:39:14;15.10;;;8.38;;
62523;SDS011;53689;56.878;60.672;2023-01-15T00:41:42;13.25;;;7.95;;
62523;SDS011;53689;56.878;60.672;2023-01-15T00:44:09;14.15;;;8.43;;
62523;SDS011;53689;56.878;60.672;2023-01-15T00:46:37;15.40;;;9.10;;
62523;SDS011;53689;56.878;60.672;2023-01-15T00:49:06;14.93;;;7.70;;
62523;SDS011;53689;56.878;60.672;2023-01-15T00:51:34;15.55;;;9.60;;
62523;SDS011;53689;56.878;60.672;2023-01-15T00:54:02;10.90;;;7.20;;
62523;SDS011;53689;56.878;60.672;2023-01-15T00:56:31;16.02;;;9.43;;
62523;SDS011;53689;56.878;60.672;2023-01-15T00:58:59;17.42;;;10.75;;
62523;SDS011;53689;56.878;60.672;2023-01-15T01:01:28;13.55;;;8.63;;
62523;SDS011;53689;56.878;60.672;2023-01-15T01:03:55;12.15;;;7.53;;
62523;SDS011;53689;56.878;60.672;2023-01-15T01:06:28;11.68;;;7.72;;
62523;SDS011;53689;56.878;60.672;2023-01-15T01:08:55;12.50;;;7.13;;
62523;SDS011;53689;56.878;60.672;2023-01-15T01:11:23;13.27;;;8.10;;
62523;SDS011;53689;56.878;60.672;2023-01-15T01:13:52;16.55;;;8.32;;
62523;SDS011;53689;56.878;60.672;2023-01-15T01:16:24;16.92;;;9.02;;
62523;SDS011;53689;56.878;60.672;2023-01-15T01:18:55;12.40;;;7.95;;
62523;SDS011;53689;56.878;60.672;2023-01-15T01:21:23;11.93;;;6.70;;
62523;SDS011;53689;56.878;60.672;2023-01-15T01:23:53;12.63;;;7.88;;
62523;SDS011;53689;56.878;60.672;2023-01-15T01:26:21;17.55;;;10.57;;
62523;SDS011;53689;56.878;60.672;2023-01-15T01:28:48;15.20;;;9.07;;
62523;SDS011;53689;56.878;60.672;2023-01-15T01:31:17;11.90;;;7.43;;
62523;SDS011;53689;56.878;60.672;2023-01-15T01:33:47;16.73;;;8.80;;
62523;SDS011;53689;56.878;60.672;2023-01-15T01:36:14;13.07;;;7.78;;
62523;SDS011;53689;56.878;60.672;2023-01-15T01:38:43;11.15;;;7.68;;
62523;SDS011;53689;56.878;60.672;2023-01-15T01:41:14;13.15;;;8.80;;
62523;SDS011;53689;56.878;60.672;2023-01-15T01:43:53;11.80;;;7.25;;
62523;SDS011;53689;56.878;60.672;2023-01-15T01:46:24;12.02;;;7.65;;
62523;SDS011;53689;56.878;60.672;2023-01-15T01:48:53;10.45;;;6.55;;
62523;SDS011;53689;56.878;60.672;2023-01-15T01:51:23;10.15;;;6.70;;
62523;SDS011;53689;56.878;60.672;2023-01-15T01:53:56;12.68;;;7.93;;
62523;SDS011;53689;56.878;60.672;2023-01-15T01:56:26;13.25;;;8.25;;
62523;SDS011;53689;56.878;60.672;2023-01-15T02:01:23;12.55;;;7.60;;
62523;SDS011;53689;56.878;60.672;2023-01-15T02:03:52;15.17;;;8.50;;
62523;SDS011;53689;56.878;60.672;2023-01-15T02:06:20;12.90;;;8.20;;
62523;SDS011;53689;56.878;60.672;2023-01-15T02:08:50;11.68;;;7.28;;
62523;SDS011;53689;56.878;60.672;2023-01-15T02:11:18;11.80;;;7.95;;
62523;SDS011;53689;56.878;60.672;2023-01-15T02:13:52;14.18;;;7.82;;
62523;SDS011;53689;56.878;60.672;2023-01-15T02:16:26;12.65;;;7.88;;
62523;SDS011;53689;56.878;60.672;2023-01-15T02:18:59;12.63;;;7.60;;
62523;SDS011;53689;56.878;60.672;2023-01-15T02:21:42;11.80;;;7.53;;
62523;SDS011;53689;56.878;60.672;2023-01-15T02:24:19;14.38;;;7.45;;
62523;SDS011;53689;56.878;60.672;2023-01-15T02:26:58;9.18;;;5.53;;
62523;SDS011;53689;56.878;60.672;2023-01-15T02:29:34;11.05;;;7.18;;
62523;SDS011;53689;56.878;60.672;2023-01-15T02:32:12;9.97;;;6.70;;
62523;SDS011;53689;56.878;60.672;2023-01-15T02:34:46;11.73;;;7.25;;
62523;SDS011;53689;56.878;60.672;2023-01-15T02:37:20;13.40;;;8.15;;
62523;SDS011;53689;56.878;60.672;2023-01-15T02:39:52;10.50;;;6.97;;
62523;SDS011;53689;56.878;60.672;2023-01-15T02:42:25;11.23;;;7.50;;
62523;SDS011;53689;56.878;60.672;2023-01-15T02:44:56;14.30;;;7.95;;
62523;SDS011;53689;56.878;60.672;2023-01-15T02:47:29;12.38;;;6.63;;
62523;SDS011;53689;56.878;60.672;2023-01-15T02:50:03;11.25;;;7.28;;
62523;SDS011;53689;56.878;60.672;2023-01-15T02:52:38;13.25;;;7.45;;
62523;SDS011;53689;56.878;60.672;2023-01-15T02:55:11;12.93;;;7.68;;
62523;SDS011;53689;56.878;60.672;2023-01-15T02:57:45;13.63;;;7.45;;
62523;SDS011;53689;56.878;60.672;2023-01-15T03:00:16;10.68;;;6.82;;
62523;SDS011;53689;56.878;60.672;2023-01-15T03:02:49;10.77;;;6.75;;
62523;SDS011;53689;56.878;60.672;2023-01-15T03:05:26;11.05;;;7.10;;
62523;SDS011;53689;56.878;60.672;2023-01-15T03:07:57;13.00;;;8.43;;
62523;SDS011;53689;56.878;60.672;2023-01-15T03:10:32;11.82;;;6.28;;
62523;SDS011;53689;56.878;60.672;2023-01-15T03:13:09;11.82;;;7.20;;
62523;SDS011;53689;56.878;60.672;2023-01-15T03:15:50;10.70;;;5.72;;
62523;SDS011;53689;56.878;60.672;2023-01-15T03:18:21;11.98;;;6.82;;
62523;SDS011;53689;56.878;60.672;2023-01-15T03:20:56;12.65;;;6.97;;
62523;SDS011;53689;56.878;60.672;2023-01-15T03:23:28;10.73;;;5.88;;
62523;SDS011;53689;56.878;60.672;2023-01-15T03:25:56;13.77;;;7.18;;
62523;SDS011;53689;56.878;60.672;2023-01-15T03:28:28;11.43;;;6.28;;
62523;SDS011;53689;56.878;60.672;2023-01-15T03:30:59;9.88;;;5.95;;
62523;SDS011;53689;56.878;60.672;2023-01-15T03:33:28;11.00;;;5.90;;
62523;SDS011;53689;56.878;60.672;2023-01-15T03:38:38;11.60;;;6.00;;
62523;SDS011;53689;56.878;60.672;2023-01-15T03:41:13;11.75;;;6.63;;
62523;SDS011;53689;56.878;60.672;2023-01-15T03:43:57;10.23;;;5.00;;
62523;SDS011;53689;56.878;60.672;2023-01-15T03:49:30;9.02;;;5.22;;
62523;SDS011;53689;56.878;60.672;2023-01-15T03:52:14;12.30;;;6.32;;
62523;SDS011;53689;56.878;60.672;2023-01-15T03:54:49;10.68;;;5.88;;
62523;SDS011;53689;56.878;60.672;2023-01-15T03:57:26;10.63;;;5.50;;
62523;SDS011;53689;56.878;60.672;2023-01-15T03:59:58;11.10;;;5.57;;
62523;SDS011;53689;56.878;60.672;2023-01-15T04:02:41;8.73;;;5.65;;
62523;SDS011;53689;56.878;60.672;2023-01-15T04:05:13;8.43;;;5.22;;
62523;SDS011;53689;56.878;60.672;2023-01-15T04:07:45;8.90;;;5.50;;
62523;SDS011;53689;56.878;60.672;2023-01-15T04:10:15;9.60;;;5.03;;
62523;SDS011;53689;56.878;60.672;2023-01-15T04:12:44;10.65;;;6.07;;
62523;SDS011;53689;56.878;60.672;2023-01-15T04:15:14;9.80;;;6.10;;
62523;SDS011;53689;56.878;60.672;2023-01-15T04:17:43;9.40;;;5.53;;
62523;SDS011;53689;56.878;60.672;2023-01-15T04:20:12;11.10;;;5.68;;
62523;SDS011;53689;56.878;60.672;2023-01-15T04:22:42;10.95;;;6.10;;
62523;SDS011;53689;56.878;60.672;2023-01-15T04:25:09;10.05;;;4.70;;
62523;SDS011;53689;56.878;60.672;2023-01-15T04:27:37;8.63;;;4.25;;
62523;SDS011;53689;56.878;60.672;2023-01-15T04:30:05;10.10;;;5.18;;
62523;SDS011;53689;56.878;60.672;2023-01-15T04:32:35;9.00;;;4.95;;
62523;SDS011;53689;56.878;60.672;2023-01-15T04:35:04;7.65;;;5.05;;
62523;SDS011;53689;56.878;60.672;2023-01-15T04:37:32;9.45;;;5.43;;
62523;SDS011;53689;56.878;60.672;2023-01-15T04:40:00;9.52;;;5.38;;
62523;SDS011;53689;56.878;60.672;2023-01-15T04:42:28;9.00;;;5.00;;
62523;SDS011;53689;56.878;60.672;2023-01-15T04:44:56;8.85;;;4.82;;
62523;SDS011;53689;56.878;60.672;2023-01-15T04:47:24;7.80;;;4.50;;
62523;SDS011;53689;56.878;60.672;2023-01-15T04:49:53;8.70;;;4.20;;
62523;SDS011;53689;56.878;60.672;2023-01-15T04:52:21;6.60;;;4.00;;
62523;SDS011;53689;56.878;60.672;2023-01-15T04:54:49;6.32;;;3.88;;
62523;SDS011;53689;56.878;60.672;2023-01-15T04:57:16;9.00;;;4.85;;
62523;SDS011;53689;56.878;60.672;2023-01-15T04:59:44;8.23;;;4.53;;
62523;SDS011;53689;56.878;60.672;2023-01-15T05:02:12;6.18;;;4.10;;
62523;SDS011;53689;56.878;60.672;2023-01-15T05:04:41;8.02;;;4.68;;
62523;SDS011;53689;56.878;60.672;2023-01-15T05:07:11;8.15;;;4.70;;
62523;SDS011;53689;56.878;60.672;2023-01-15T05:09:38;7.65;;;4.15;;
62523;SDS011;53689;56.878;60.672;2023-01-15T05:12:06;7.70;;;4.25;;
62523;SDS011;53689;56.878;60.672;2023-01-15T05:14:35;6.68;;;4.07;;
62523;SDS011;53689;56.878;60.672;2023-01-15T05:17:02;7.38;;;4.60;;
62523;SDS011;53689;56.878;60.672;2023-01-15T05:19:30;9.10;;;4.80;;
62523;SDS011;53689;56.878;60.672;2023-01-15T05:21:58;9.95;;;4.93;;
62523;SDS011;53689;56.878;60.672;2023-01-15T05:24:27;8.27;;;4.50;;
62523;SDS011;53689;56.878;60.672;2023-01-15T05:26:55;9.02;;;5.53;;
62523;SDS011;53689;56.878;60.672;2023-01-15T05:29:23;7.55;;;4.53;;
62523;SDS011;53689;56.878;60.672;2023-01-15T05:31:50;8.80;;;4.32;;
62523;SDS011;53689;56.878;60.672;2023-01-15T05:34:18;7.72;;;4.78;;
62523;SDS011;53689;56.878;60.672;2023-01-15T05:36:46;7.30;;;4.00;;
62523;SDS011;53689;56.878;60.672;2023-01-15T05:39:13;9.70;;;4.85;;
62523;SDS011;53689;56.878;60.672;2023-01-15T05:41:43;6.07;;;3.42;;
62523;SDS011;53689;56.878;60.672;2023-01-15T05:44:10;7.75;;;5.20;;
62523;SDS011;53689;56.878;60.672;2023-01-15T05:46:39;7.28;;;4.43;;
62523;SDS011;53689;56.878;60.672;2023-01-15T05:49:09;7.03;;;3.80;;
62523;SDS011;53689;56.878;60.672;2023-01-15T05:54:06;8.30;;;4.60;;
62523;SDS011;53689;56.878;60.672;2023-01-15T05:56:35;6.63;;;4.30;;
62523;SDS011;53689;56.878;60.672;2023-01-15T05:59:05;6.28;;;3.53;;
62523;SDS011;53689;56.878;60.672;2023-01-15T06:01:33;7.68;;;4.38;;
62523;SDS011;53689;56.878;60.672;2023-01-15T06:04:02;6.97;;;3.85;;
62523;SDS011;53689;56.878;60.672;2023-01-15T06:06:31;6.53;;;3.92;;
62523;SDS011;53689;56.878;60.672;2023-01-15T06:09:00;7.40;;;3.95;;
62523;SDS011;53689;56.878;60.672;2023-01-15T06:11:28;9.77;;;4.45;;
62523;SDS011;53689;56.878;60.672;2023-01-15T06:13:56;8.70;;;4.00;;
62523;SDS011;53689;56.878;60.672;2023-01-15T06:16:25;5.38;;;3.47;;
62523;SDS011;53689;56.878;60.672;2023-01-15T06:18:53;6.57;;;4.07;;
62523;SDS011;53689;56.878;60.672;2023-01-15T06:21:21;6.38;;;3.78;;
62523;SDS011;53689;56.878;60.672;2023-01-15T06:23:49;7.40;;;4.00;;
62523;SDS011;53689;56.878;60.672;2023-01-15T06:26:20;11.23;;;4.70;;
62523;SDS011;53689;56.878;60.672;2023-01-15T06:28:49;7.20;;;3.97;;
62523;SDS011;53689;56.878;60.672;2023-01-15T06:31:17;6.97;;;3.63;;
62523;SDS011;53689;56.878;60.672;2023-01-15T06:33:48;7.97;;;4.32;;
62523;SDS011;53689;56.878;60.672;2023-01-15T06:36:17;7.93;;;4.25;;
62523;SDS011;53689;56.878;60.672;2023-01-15T06:38:47;7.22;;;4.00;;
62523;SDS011;53689;56.878;60.672;2023-01-15T06:41:16;8.68;;;4.00;;
62523;SDS011;53689;56.878;60.672;2023-01-15T06:43:45;7.65;;;3.72;;
62523;SDS011;53689;56.878;60.672;2023-01-15T06:46:13;7.28;;;3.65;;
62523;SDS011;53689;56.878;60.672;2023-01-15T06:51:12;5.22;;;3.53;;
62523;SDS011;53689;56.878;60.672;2023-01-15T06:53:39;7.33;;;3.70;;
62523;SDS011;53689;56.878;60.672;2023-01-15T06:56:07;8.23;;;3.80;;
62523;SDS011;53689;56.878;60.672;2023-01-15T06:58:35;7.68;;;3.90;;
62523;SDS011;53689;56.878;60.672;2023-01-15T07:01:08;7.97;;;4.30;;
62523;SDS011;53689;56.878;60.672;2023-01-15T07:03:37;7.85;;;3.72;;
62523;SDS011;53689;56.878;60.672;2023-01-15T07:06:06;6.15;;;3.72;;
62523;SDS011;53689;56.878;60.672;2023-01-15T07:08:36;7.40;;;3.93;;
62523;SDS011;53689;56.878;60.672;2023-01-15T07:11:04;8.35;;;4.05;;
62523;SDS011;53689;56.878;60.672;2023-01-15T07:13:35;8.80;;;3.95;;
62523;SDS011;53689;56.878;60.672;2023-01-15T07:16:04;6.60;;;3.65;;
62523;SDS011;53689;56.878;60.672;2023-01-15T07:18:32;10.23;;;4.10;;
62523;SDS011;53689;56.878;60.672;2023-01-15T07:21:01;8.40;;;4.00;;
62523;SDS011;53689;56.878;60.672;2023-01-15T07:23:30;8.38;;;4.68;;
62523;SDS011;53689;56.878;60.672;2023-01-15T07:25:59;11.15;;;4.28;;
62523;SDS011;53689;56.878;60.672;2023-01-15T07:30:57;8.73;;;4.80;;
62523;SDS011;53689;56.878;60.672;2023-01-15T07:33:25;7.55;;;3.90;;
62523;SDS011;53689;56.878;60.672;2023-01-15T07:35:53;8.15;;;4.15;;
62523;SDS011;53689;56.878;60.672;2023-01-15T07:38:22;6.82;;;4.07;;
62523;SDS011;53689;56.878;60.672;2023-01-15T07:40:50;8.88;;;4.15;;
62523;SDS011;53689;56.878;60.672;2023-01-15T07:43:19;11.77;;;4.88;;
62523;SDS011;53689;56.878;60.672;2023-01-15T07:48:15;9.75;;;4.60;;
62523;SDS011;53689;56.878;60.672;2023-01-15T07:50:43;9.27;;;4.35;;
62523;SDS011;53689;56.878;60.672;2023-01-15T07:53:11;7.97;;;4.68;;
62523;SDS011;53689;56.878;60.672;2023-01-15T07:55:40;9.38;;;4.70;;
62523;SDS011;53689;56.878;60.672;2023-01-15T07:58:08;8.95;;;4.03;;
62523;SDS011;53689;56.878;60.672;2023-01-15T08:00:37;7.07;;;4.13;;
62523;SDS011;53689;56.878;60.672;2023-01-15T08:03:08;7.68;;;4.55;;
62523;SDS011;53689;56.878;60.672;2023-01-15T08:05:35;7.88;;;4.13;;
62523;SDS011;53689;56.878;60.672;2023-01-15T08:08:03;7.47;;;4.05;;
62523;SDS011;53689;56.878;60.672;2023-01-15T08:10:32;10.53;;;4.60;;
62523;SDS011;53689;56.878;60.672;2023-01-15T08:13:00;7.90;;;3.70;;
62523;SDS011;53689;56.878;60.672;2023-01-15T08:15:28;7.38;;;3.55;;
62523;SDS011;53689;56.878;60.672;2023-01-15T08:18:02;9.57;;;4.05;;
62523;SDS011;53689;56.878;60.672;2023-01-15T08:20:29;7.63;;;3.60;;
62523;SDS011;53689;56.878;60.672;2023-01-15T08:22:57;7.82;;;4.55;;
62523;SDS011;53689;56.878;60.672;2023-01-15T08:27:54;7.55;;;3.92;;
62523;SDS011;53689;56.878;60.672;2023-01-15T08:30:26;5.53;;;3.72;;
62523;SDS011;53689;56.878;60.672;2023-01-15T08:32:57;8.55;;;4.07;;
62523;SDS011;53689;56.878;60.672;2023-01-15T08:35:28;6.75;;;4.07;;
62523;SDS011;53689;56.878;60.672;2023-01-15T08:37:55;8.98;;;4.53;;
62523;SDS011;53689;56.878;60.672;2023-01-15T08:40:23;7.75;;;3.83;;
62523;SDS011;53689;56.878;60.672;2023-01-15T08:42:50;7.05;;;3.78;;
62523;SDS011;53689;56.878;60.672;2023-01-15T08:45:18;6.85;;;4.38;;
62523;SDS011;53689;56.878;60.672;2023-01-15T08:47:45;7.60;;;3.88;;
62523;SDS011;53689;56.878;60.672;2023-01-15T08:50:13;6.70;;;4.00;;
62523;SDS011;53689;56.878;60.672;2023-01-15T08:52:42;6.88;;;3.33;;
62523;SDS011;53689;56.878;60.672;2023-01-15T08:55:10;7.85;;;4.20;;
62523;SDS011;53689;56.878;60.672;2023-01-15T08:57:37;6.20;;;3.53;;
62523;SDS011;53689;56.878;60.672;2023-01-15T09:00:05;7.85;;;3.65;;
62523;SDS011;53689;56.878;60.672;2023-01-15T09:02:34;5.88;;;3.35;;
62523;SDS011;53689;56.878;60.672;2023-01-15T09:05:01;7.13;;;3.75;;
62523;SDS011;53689;56.878;60.672;2023-01-15T09:07:29;9.02;;;3.90;;
62523;SDS011;53689;56.878;60.672;2023-01-15T09:09:58;6.78;;;3.80;;
62523;SDS011;53689;56.878;60.672;2023-01-15T09:12:26;7.55;;;3.97;;
62523;SDS011;53689;56.878;60.672;2023-01-15T09:14:53;8.68;;;3.80;;
62523;SDS011;53689;56.878;60.672;2023-01-15T09:17:29;5.38;;;3.38;;
62523;SDS011;53689;56.878;60.672;2023-01-15T09:19:57;7.07;;;3.70;;
62523;SDS011;53689;56.878;60.672;2023-01-15T09:22:25;6.72;;;3.67;;
62523;SDS011;53689;56.878;60.672;2023-01-15T09:24:52;7.15;;;3.60;;
62523;SDS011;53689;56.878;60.672;2023-01-15T09:27:21;6.78;;;3.85;;
62523;SDS011;53689;56.878;60.672;2023-01-15T09:29:49;7.00;;;3.67;;
62523;SDS011;53689;56.878;60.672;2023-01-15T09:32:17;6.60;;;3.60;;
62523;SDS011;53689;56.878;60.672;2023-01-15T09:34:44;6.03;;;3.35;;
62523;SDS011;53689;56.878;60.672;2023-01-15T09:37:12;5.35;;;3.20;;
62523;SDS011;53689;56.878;60.672;2023-01-15T09:39:39;7.38;;;4.07;;
62523;SDS011;53689;56.878;60.672;2023-01-15T09:42:10;8.75;;;3.47;;
62523;SDS011;53689;56.878;60.672;2023-01-15T09:45:12;7.20;;;3.72;;
62523;SDS011;53689;56.878;60.672;2023-01-15T09:47:45;6.53;;;3.80;;
62523;SDS011;53689;56.878;60.672;2023-01-15T09:50:26;7.30;;;3.53;;
62523;SDS011;53689;56.878;60.672;2023-01-15T09:53:15;7.85;;;4.20;;
62523;SDS011;53689;56.878;60.672;2023-01-15T09:55:53;8.18;;;3.90;;
62523;SDS011;53689;56.878;60.672;2023-01-15T09:58:24;8.23;;;3.83;;
62523;SDS011;53689;56.878;60.672;2023-01-15T10:01:00;7.65;;;3.95;;
62523;SDS011;53689;56.878;60.672;2023-01-15T10:03:30;8.13;;;4.03;;
62523;SDS011;53689;56.878;60.672;2023-01-15T10:06:06;8.00;;;4.00;;
62523;SDS011;53689;56.878;60.672;2023-01-15T10:08:40;6.68;;;3.63;;
62523;SDS011;53689;56.878;60.672;2023-01-15T10:11:20;6.63;;;3.83;;
62523;SDS011;53689;56.878;60.672;2023-01-15T10:13:55;8.52;;;3.92;;
62523;SDS011;53689;56.878;60.672;2023-01-15T10:16:30;6.88;;;3.90;;
62523;SDS011;53689;56.878;60.672;2023-01-15T10:18:59;5.90;;;3.63;;
62523;SDS011;53689;56.878;60.672;2023-01-15T10:21:29;7.82;;;4.32;;
62523;SDS011;53689;56.878;60.672;2023-01-15T10:24:06;7.65;;;4.05;;
62523;SDS011;53689;56.878;60.672;2023-01-15T10:26:42;9.27;;;4.53;;
62523;SDS011;53689;56.878;60.672;2023-01-15T10:29:16;6.43;;;4.03;;
62523;SDS011;53689;56.878;60.672;2023-01-15T10:31:52;8.35;;;4.15;;
62523;SDS011;53689;56.878;60.672;2023-01-15T10:34:38;7.95;;;3.85;;
62523;SDS011;53689;56.878;60.672;2023-01-15T10:37:36;11.55;;;4.88;;
62523;SDS011;53689;56.878;60.672;2023-01-15T10:40:11;8.80;;;4.05;;
62523;SDS011;53689;56.878;60.672;2023-01-15T10:42:53;9.98;;;3.85;;
62523;SDS011;53689;56.878;60.672;2023-01-15T10:45:29;6.63;;;4.00;;
62523;SDS011;53689;56.878;60.672;2023-01-15T10:48:03;8.82;;;4.43;;
62523;SDS011;53689;56.878;60.672;2023-01-15T10:50:38;9.43;;;4.38;;
62523;SDS011;53689;56.878;60.672;2023-01-15T10:53:08;8.68;;;4.45;;
62523;SDS011;53689;56.878;60.672;2023-01-15T10:55:43;9.05;;;4.60;;
62523;SDS011;53689;56.878;60.672;2023-01-15T10:58:13;6.97;;;3.90;;
62523;SDS011;53689;56.878;60.672;2023-01-15T11:00:49;8.27;;;4.07;;
62523;SDS011;53689;56.878;60.672;2023-01-15T11:03:23;8.60;;;4.50;;
62523;SDS011;53689;56.878;60.672;2023-01-15T11:05:58;10.20;;;4.85;;
62523;SDS011;53689;56.878;60.672;2023-01-15T11:08:26;7.85;;;4.32;;
62523;SDS011;53689;56.878;60.672;2023-01-15T11:11:16;8.25;;;4.57;;
62523;SDS011;53689;56.878;60.672;2023-01-15T11:13:55;10.15;;;5.00;;
62523;SDS011;53689;56.878;60.672;2023-01-15T11:16:23;7.40;;;4.80;;
62523;SDS011;53689;56.878;60.672;2023-01-15T11:18:54;7.80;;;4.45;;
62523;SDS011;53689;56.878;60.672;2023-01-15T11:21:22;9.70;;;4.60;;
62523;SDS011;53689;56.878;60.672;2023-01-15T11:23:50;7.53;;;4.00;;
62523;SDS011;53689;56.878;60.672;2023-01-15T11:26:21;8.13;;;4.22;;
62523;SDS011;53689;56.878;60.672;2023-01-15T11:28:50;10.48;;;4.78;;
62523;SDS011;53689;56.878;60.672;2023-01-15T11:31:19;10.93;;;4.85;;
62523;SDS011;53689;56.878;60.672;2023-01-15T11:33:56;9.93;;;4.70;;
62523;SDS011;53689;56.878;60.672;2023-01-15T11:36:26;9.48;;;5.30;;
62523;SDS011;53689;56.878;60.672;2023-01-15T11:38:55;10.85;;;5.38;;
62523;SDS011;53689;56.878;60.672;2023-01-15T11:41:27;10.17;;;5.17;;
62523;SDS011;53689;56.878;60.672;2023-01-15T11:43:56;8.77;;;4.55;;
62523;SDS011;53689;56.878;60.672;2023-01-15T11:46:25;9.02;;;4.90;;
62523;SDS011;53689;56.878;60.672;2023-01-15T11:48:56;9.15;;;4.75;;
62523;SDS011;53689;56.878;60.672;2023-01-15T11:51:24;9.07;;;4.90;;
62523;SDS011;53689;56.878;60.672;2023-01-15T11:53:57;10.32;;;4.75;;
62523;SDS011;53689;56.878;60.672;2023-01-15T11:56:28;10.30;;;5.20;;
62523;SDS011;53689;56.878;60.672;2023-01-15T11:58:58;7.88;;;4.40;;
62523;SDS011;53689;56.878;60.672;2023-01-15T12:01:29;9.63;;;5.95;;
62523;SDS011;53689;56.878;60.672;2023-01-15T12:04:02;7.28;;;4.72;;
62523;SDS011;53689;56.878;60.672;2023-01-15T12:06:33;8.32;;;4.60;;
62523;SDS011;53689;56.878;60.672;2023-01-15T12:09:04;10.32;;;5.15;;
62523;SDS011;53689;56.878;60.672;2023-01-15T12:11:46;9.20;;;5.07;;
62523;SDS011;53689;56.878;60.672;2023-01-15T12:20:13;11.57;;;5.28;;
62523;SDS011;53689;56.878;60.672;2023-01-15T12:22:54;8.32;;;4.40;;
62523;SDS011;53689;56.878;60.672;2023-01-15T12:25:37;9.47;;;4.53;;
62523;SDS011;53689;56.878;60.672;2023-01-15T12:28:11;8.30;;;4.78;;
62523;SDS011;53689;56.878;60.672;2023-01-15T12:30:45;7.95;;;4.97;;
62523;SDS011;53689;56.878;60.672;2023-01-15T12:33:25;11.88;;;6.05;;
62523;SDS011;53689;56.878;60.672;2023-01-15T12:36:05;8.40;;;5.05;;
62523;SDS011;53689;56.878;60.672;2023-01-15T12:38:41;10.38;;;5.00;;
62523;SDS011;53689;56.878;60.672;2023-01-15T12:41:15;7.15;;;4.30;;
62523;SDS011;53689;56.878;60.672;2023-01-15T12:43:46;8.38;;;5.22;;
62523;SDS011;53689;56.878;60.672;2023-01-15T12:46:18;10.88;;;5.68;;
62523;SDS011;53689;56.878;60.672;2023-01-15T12:48:52;8.27;;;4.60;;
62523;SDS011;53689;56.878;60.672;2023-01-15T12:51:28;9.27;;;5.20;;
62523;SDS011;53689;56.878;60.672;2023-01-15T12:54:03;11.25;;;5.32;;
62523;SDS011;53689;56.878;60.672;2023-01-15T12:56:41;8.85;;;5.03;;
62523;SDS011;53689;56.878;60.672;2023-01-15T12:59:17;10.20;;;6.45;;
62523;SDS011;53689;56.878;60.672;2023-01-15T13:01:50;8.43;;;5.28;;
62523;SDS011;53689;56.878;60.672;2023-01-15T13:04:27;9.15;;;4.63;;
62523;SDS011;53689;56.878;60.672;2023-01-15T13:07:02;8.00;;;4.55;;
62523;SDS011;53689;56.878;60.672;2023-01-15T13:09:38;7.53;;;4.97;;
62523;SDS011;53689;56.878;60.672;2023-01-15T13:12:11;9.20;;;5.20;;
62523;SDS011;53689;56.878;60.672;2023-01-15T13:14:40;8.27;;;4.63;;
62523;SDS011;53689;56.878;60.672;2023-01-15T13:17:14;9.23;;;5.47;;
62523;SDS011;53689;56.878;60.672;2023-01-15T13:19:49;10.32;;;4.88;;
62523;SDS011;53689;56.878;60.672;2023-01-15T13:22:30;8.45;;;5.10;;
62523;SDS011;53689;56.878;60.672;2023-01-15T13:25:17;8.90;;;4.72;;
62523;SDS011;53689;56.878;60.672;2023-01-15T13:28:02;9.77;;;5.97;;
62523;SDS011;53689;56.878;60.672;2023-01-15T13:30:48;11.25;;;6.25;;
62523;SDS011;53689;56.878;60.672;2023-01-15T13:33:26;7.43;;;4.78;;
62523;SDS011;53689;56.878;60.672;2023-01-15T13:36:01;9.73;;;4.85;;
62523;SDS011;53689;56.878;60.672;2023-01-15T13:38:36;11.02;;;6.72;;
62523;SDS011;53689;56.878;60.672;2023-01-15T13:41:08;11.13;;;5.60;;
62523;SDS011;53689;56.878;60.672;2023-01-15T13:43:36;9.43;;;5.53;;
62523;SDS011;53689;56.878;60.672;2023-01-15T13:46:07;8.80;;;5.05;;
62523;SDS011;53689;56.878;60.672;2023-01-15T13:48:39;10.18;;;5.22;;
62523;SDS011;53689;56.878;60.672;2023-01-15T13:51:25;8.50;;;5.72;;
62523;SDS011;53689;56.878;60.672;2023-01-15T13:53:57;8.85;;;5.10;;
62523;SDS011;53689;56.878;60.672;2023-01-15T13:56:27;11.65;;;4.95;;
62523;SDS011;53689;56.878;60.672;2023-01-15T13:58:58;9.48;;;5.20;;
62523;SDS011;53689;56.878;60.672;2023-01-15T14:01:30;8.73;;;4.40;;
62523;SDS011;53689;56.878;60.672;2023-01-15T14:04:03;7.97;;;4.15;;
62523;SDS011;53689;56.878;60.672;2023-01-15T14:06:39;9.70;;;5.80;;
62523;SDS011;53689;56.878;60.672;2023-01-15T14:09:13;9.32;;;5.35;;
62523;SDS011;53689;56.878;60.672;2023-01-15T14:11:59;7.63;;;5.00;;
62523;SDS011;53689;56.878;60.672;2023-01-15T14:14:41;8.43;;;4.65;;
62523;SDS011;53689;56.878;60.672;2023-01-15T14:17:39;8.40;;;4.43;;
62523;SDS011;53689;56.878;60.672;2023-01-15T14:23:26;9.13;;;5.63;;
62523;SDS011;53689;56.878;60.672;2023-01-15T14:26:10;9.73;;;4.97;;
62523;SDS011;53689;56.878;60.672;2023-01-15T14:31:41;8.73;;;5.03;;
62523;SDS011;53689;56.878;60.672;2023-01-15T14:34:24;8.23;;;4.95;;
62523;SDS011;53689;56.878;60.672;2023-01-15T14:36:56;8.15;;;4.50;;
62523;SDS011;53689;56.878;60.672;2023-01-15T14:39:26;8.07;;;4.43;;
62523;SDS011;53689;56.878;60.672;2023-01-15T14:42:08;6.07;;;4.10;;
62523;SDS011;53689;56.878;60.672;2023-01-15T14:44:40;8.48;;;4.40;;
62523;SDS011;53689;56.878;60.672;2023-01-15T14:47:16;6.00;;;3.90;;
62523;SDS011;53689;56.878;60.672;2023-01-15T14:49:58;8.02;;;4.20;;
62523;SDS011;53689;56.878;60.672;2023-01-15T14:52:42;7.90;;;4.43;;
62523;SDS011;53689;56.878;60.672;2023-01-15T14:55:12;8.38;;;4.55;;
62523;SDS011;53689;56.878;60.672;2023-01-15T14:57:50;7.57;;;4.68;;
62523;SDS011;53689;56.878;60.672;2023-01-15T15:00:25;6.60;;;4.18;;
62523;SDS011;53689;56.878;60.672;2023-01-15T15:03:00;8.70;;;4.18;;
62523;SDS011;53689;56.878;60.672;2023-01-15T15:05:31;7.20;;;4.18;;
62523;SDS011;53689;56.878;60.672;2023-01-15T15:08:00;8.13;;;3.97;;
62523;SDS011;53689;56.878;60.672;2023-01-15T15:10:31;7.75;;;4.45;;
62523;SDS011;53689;56.878;60.672;2023-01-15T15:13:07;9.90;;;4.60;;
62523;SDS011;53689;56.878;60.672;2023-01-15T15:15:41;7.07;;;4.30;;
62523;SDS011;53689;56.878;60.672;2023-01-15T15:18:17;7.55;;;4.32;;
62523;SDS011;53689;56.878;60.672;2023-01-15T15:20:57;6.00;;;3.88;;
62523;SDS011;53689;56.878;60.672;2023-01-15T15:23:36;7.03;;;4.22;;
62523;SDS011;53689;56.878;60.672;2023-01-15T15:26:17;6.63;;;4.25;;
62523;SDS011;53689;56.878;60.672;2023-01-15T15:28:56;6.38;;;4.28;;
62523;SDS011;53689;56.878;60.672;2023-01-15T15:31:26;9.10;;;4.57;;